Terminal Aerodrome Forecast
Issued by NWS

Current Version | Previous Version | Graphics & Text | Print | Product List | Glossary On
Versions: 1 2 3 4 5 6 7 8 9 10 11 12 13 14 15 16 17 18 19 20 21 22
000
FTUS41 KRLX 201120
TAFCKB
TAF
KCKB 201120Z 2012/2112 VRB03KT P6SM BKN035
     FM201800 22006KT P6SM BKN080
     FM210000 22006KT 6SM -SHRA OVC040
     FM210400 00000KT 3SM -SHRA OVC025
     FM210600 00000KT 2SM -SHRA OVC010
     FM210800 00000KT 2SM -SHRA OVC004=

USA.gov is the U.S. government's official web portal to all federal, state and local government web resources and services.